createdAt,value
2022-12-13T00:02:45.458Z,-3.78
2022-12-13T00:05:50.468Z,-3.73
2022-12-13T00:08:58.153Z,-3.68
2022-12-13T00:12:01.161Z,-3.67
2022-12-13T00:15:07.678Z,-3.59
2022-12-13T00:18:10.539Z,-3.50
2022-12-13T00:21:18.884Z,-3.40
2022-12-13T00:24:23.223Z,-3.35
2022-12-13T00:27:28.962Z,-3.35
2022-12-13T00:30:33.262Z,-3.37
2022-12-13T00:33:40.028Z,-3.32
2022-12-13T00:36:42.767Z,-3.32
2022-12-13T00:39:52.951Z,-3.23
2022-12-13T00:42:55.745Z,-3.21
2022-12-13T00:45:58.437Z,-3.21
2022-12-13T00:49:02.632Z,-3.29
2022-12-13T00:52:05.702Z,-3.30
2022-12-13T00:55:12.815Z,-3.39
2022-12-13T00:58:15.689Z,-3.37
2022-12-13T01:01:21.899Z,-3.41
2022-12-13T01:04:24.620Z,-3.48
2022-12-13T01:07:27.958Z,-3.69
2022-12-13T01:10:32.082Z,-3.59
2022-12-13T01:13:35.183Z,-3.67
2022-12-13T01:16:37.964Z,-3.72
2022-12-13T01:19:40.930Z,-3.72
2022-12-13T01:22:43.800Z,-3.71
2022-12-13T01:25:58.628Z,-3.78
2022-12-13T01:29:01.860Z,-3.76
2022-12-13T01:32:04.956Z,-3.81
2022-12-13T01:35:08.270Z,-3.81
2022-12-13T01:38:15.638Z,-3.86
2022-12-13T01:41:27.045Z,-3.92
2022-12-13T01:44:59.644Z,-3.96
2022-12-13T01:48:09.821Z,-3.99
2022-12-13T01:51:15.859Z,-4.02
2022-12-13T01:54:22.894Z,-4.04
2022-12-13T01:57:30.129Z,-4.04
2022-12-13T02:00:35.088Z,-4.05
2022-12-13T02:03:38.769Z,-4.11
2022-12-13T02:06:44.536Z,-4.25
2022-12-13T02:09:47.615Z,-4.12
2022-12-13T02:13:02.090Z,-4.15
2022-12-13T02:16:22.422Z,-4.18
2022-12-13T02:19:59.472Z,-4.16
2022-12-13T02:23:42.118Z,-4.18
2022-12-13T02:26:56.418Z,-4.19
2022-12-13T02:30:22.441Z,-4.20
2022-12-13T02:33:40.195Z,-4.24
2022-12-13T02:36:49.054Z,-4.24
2022-12-13T02:39:58.186Z,-4.21
2022-12-13T02:43:06.052Z,-4.29
2022-12-13T02:46:13.694Z,-4.20
2022-12-13T02:49:22.117Z,-4.23
2022-12-13T02:52:28.482Z,-4.20
2022-12-13T02:55:32.498Z,-4.19
2022-12-13T02:58:39.995Z,-4.20
2022-12-13T03:02:09.429Z,-4.22
2022-12-13T03:05:39.200Z,-4.17
2022-12-13T03:08:52.912Z,-4.18
2022-12-13T03:12:31.653Z,-4.22
2022-12-13T03:15:41.374Z,-4.21
2022-12-13T03:18:47.191Z,-4.28
2022-12-13T03:21:53.129Z,-4.31
2022-12-13T03:24:56.030Z,-4.23
2022-12-13T03:28:01.407Z,-4.28
2022-12-13T03:31:05.625Z,-4.24
2022-12-13T03:34:13.139Z,-4.22
2022-12-13T03:37:29.168Z,-4.10
2022-12-13T03:40:32.806Z,-4.09
2022-12-13T03:43:35.640Z,-4.10
2022-12-13T03:46:38.508Z,-4.05
2022-12-13T03:49:42.573Z,-4.03
2022-12-13T03:52:47.516Z,-4.02
2022-12-13T03:55:53.453Z,-4.05
2022-12-13T03:58:56.190Z,-4.12
2022-12-13T04:01:58.964Z,-4.17
2022-12-13T04:05:07.047Z,-4.12
2022-12-13T04:08:22.067Z,-4.14
2022-12-13T04:11:46.736Z,-4.10
2022-12-13T04:14:49.459Z,-4.15
2022-12-13T04:17:52.329Z,-4.07
2022-12-13T04:20:57.379Z,-4.11
2022-12-13T04:24:00.874Z,-4.11
2022-12-13T04:27:04.523Z,-4.06
2022-12-13T04:30:09.046Z,-4.01
2022-12-13T04:33:11.868Z,-4.10
2022-12-13T04:36:31.681Z,-3.86
2022-12-13T04:39:35.514Z,-3.83
2022-12-13T04:42:38.488Z,-3.85
2022-12-13T04:45:44.318Z,-3.85
2022-12-13T04:48:47.077Z,-3.89
2022-12-13T04:51:54.648Z,-3.85
2022-12-13T04:55:00.082Z,-3.84
2022-12-13T04:58:03.492Z,-3.85
2022-12-13T05:01:08.071Z,-3.86
2022-12-13T05:04:11.293Z,-3.78
2022-12-13T05:07:15.727Z,-3.73
2022-12-13T05:10:34.288Z,-3.66
2022-12-13T05:13:40.659Z,-3.84
2022-12-13T05:16:53.389Z,-3.62
2022-12-13T05:19:56.182Z,-3.61
2022-12-13T05:23:10.280Z,-3.63
2022-12-13T05:26:12.961Z,-3.60
2022-12-13T05:29:18.783Z,-3.61
2022-12-13T05:32:21.538Z,-3.63
2022-12-13T05:35:25.742Z,-3.65
2022-12-13T05:38:30.820Z,-3.71
2022-12-13T05:41:37.901Z,-3.73
2022-12-13T05:44:40.635Z,-3.76
2022-12-13T05:47:43.389Z,-3.80
2022-12-13T05:50:46.224Z,-3.70
2022-12-13T05:53:53.395Z,-3.66
2022-12-13T05:56:56.533Z,-3.67
2022-12-13T05:59:59.533Z,-3.77
2022-12-13T06:03:02.677Z,-3.72
2022-12-13T06:06:07.460Z,-3.88
2022-12-13T06:09:11.598Z,-3.99
2022-12-13T06:12:32.124Z,-3.96
2022-12-13T06:15:35.730Z,-4.01
2022-12-13T06:18:47.533Z,-4.12
2022-12-13T06:21:55.016Z,-4.21
2022-12-13T06:24:59.159Z,-4.22
2022-12-13T06:28:02.318Z,-4.29
2022-12-13T06:31:08.170Z,-4.38
2022-12-13T06:34:14.465Z,-4.40
2022-12-13T06:37:18.084Z,-4.53
2022-12-13T06:40:23.370Z,-4.57
2022-12-13T06:43:29.043Z,-4.64
2022-12-13T06:46:31.946Z,-4.69
2022-12-13T06:49:37.864Z,-4.76
2022-12-13T06:52:50.129Z,-4.82
2022-12-13T06:56:13.086Z,-4.90
2022-12-13T06:59:18.145Z,-4.93
2022-12-13T07:02:25.671Z,-4.89
2022-12-13T07:05:33.207Z,-4.89
2022-12-13T07:08:36.973Z,-4.91
2022-12-13T07:11:41.160Z,-4.98
2022-12-13T07:14:44.043Z,-4.92
2022-12-13T07:17:56.621Z,-4.59
2022-12-13T07:21:06.214Z,-4.57
2022-12-13T07:24:12.420Z,-4.43
2022-12-13T07:27:22.707Z,-4.40
2022-12-13T07:30:25.472Z,-4.58
2022-12-13T07:33:29.646Z,-4.69
2022-12-13T07:36:32.632Z,-4.75
2022-12-13T07:39:35.413Z,-4.78
2022-12-13T07:42:39.537Z,-4.83
2022-12-13T07:45:42.337Z,-4.88
2022-12-13T07:48:45.478Z,-4.92
2022-12-13T07:51:49.276Z,-4.92
2022-12-13T07:54:52.097Z,-4.95
2022-12-13T07:58:04.436Z,-4.96
2022-12-13T08:01:09.464Z,-4.97
2022-12-13T08:04:12.188Z,-4.94
2022-12-13T08:07:15.159Z,-4.95
2022-12-13T08:10:19.283Z,-4.91
2022-12-13T08:13:23.483Z,-4.92
2022-12-13T08:16:29.370Z,-4.95
2022-12-13T08:19:35.391Z,-4.91
2022-12-13T08:22:43.591Z,-4.88
2022-12-13T08:25:53.132Z,-4.83
2022-12-13T08:28:57.211Z,-4.80
2022-12-13T08:32:01.164Z,-4.83
2022-12-13T08:35:07.982Z,-4.80
2022-12-13T08:38:10.828Z,-4.72
2022-12-13T08:41:14.474Z,-4.71
2022-12-13T08:44:18.647Z,-4.71
2022-12-13T08:47:28.567Z,-4.66
2022-12-13T08:50:32.173Z,-4.64
2022-12-13T08:53:40.481Z,-4.60
2022-12-13T08:56:43.815Z,-4.51
2022-12-13T09:00:03.352Z,-4.52
2022-12-13T09:03:10.105Z,-4.47
2022-12-13T09:06:20.918Z,-4.42
2022-12-13T09:09:23.966Z,-4.34
2022-12-13T09:12:29.928Z,-4.37
2022-12-13T09:15:35.413Z,-4.38
2022-12-13T09:18:38.220Z,-4.30
2022-12-13T09:21:43.169Z,-4.22
2022-12-13T09:24:52.296Z,-4.12
2022-12-13T09:27:55.125Z,-4.06
2022-12-13T09:30:59.237Z,-3.94
2022-12-13T09:34:01.964Z,-3.85
2022-12-13T09:37:04.736Z,-3.77
2022-12-13T09:40:16.200Z,-3.68
2022-12-13T09:43:42.377Z,-3.63
2022-12-13T09:46:51.160Z,-3.55
2022-12-13T09:49:57.163Z,-3.60
2022-12-13T09:53:11.887Z,-3.43
2022-12-13T09:56:25.132Z,-3.37
2022-12-13T09:59:30.182Z,-3.32
2022-12-13T10:02:45.540Z,-3.29
2022-12-13T10:05:59.000Z,-3.28
2022-12-13T10:09:02.201Z,-3.27
2022-12-13T10:12:05.482Z,-3.19
2022-12-13T10:15:12.537Z,-3.05
2022-12-13T10:18:36.474Z,-3.01
2022-12-13T10:21:45.717Z,-3.08
2022-12-13T10:24:53.081Z,-3.05
2022-12-13T10:27:58.987Z,-3.09
2022-12-13T10:31:02.560Z,-3.10
2022-12-13T10:34:06.997Z,-3.03
2022-12-13T10:37:27.391Z,-2.82
2022-12-13T10:40:35.537Z,-2.72
2022-12-13T10:43:38.292Z,-2.67
2022-12-13T10:46:43.019Z,-2.65
2022-12-13T10:49:59.319Z,-2.68
2022-12-13T10:53:06.231Z,-2.60
2022-12-13T10:56:09.448Z,-2.70
2022-12-13T10:59:33.135Z,-2.64
2022-12-13T11:02:37.807Z,-2.60
2022-12-13T11:05:47.390Z,-2.41
2022-12-13T11:08:50.571Z,-2.36
2022-12-13T11:11:58.144Z,-2.24
2022-12-13T11:15:04.672Z,-2.26
2022-12-13T11:18:11.721Z,-2.19
2022-12-13T11:21:26.171Z,-2.06
2022-12-13T11:24:35.032Z,-2.12
2022-12-13T11:27:53.910Z,-1.99
2022-12-13T11:31:16.563Z,-1.80
2022-12-13T11:34:33.734Z,-1.79
2022-12-13T11:37:55.963Z,-1.89
2022-12-13T11:41:04.612Z,-1.85
2022-12-13T11:44:19.371Z,-1.70
2022-12-13T11:47:26.328Z,-1.77
2022-12-13T11:50:42.504Z,-1.74
2022-12-13T11:53:55.050Z,-1.83
2022-12-13T11:57:01.077Z,-1.61
2022-12-13T12:00:13.070Z,-1.56
2022-12-13T12:03:19.631Z,-1.45
2022-12-13T12:06:24.715Z,-1.48
2022-12-13T12:09:30.124Z,-1.55
2022-12-13T12:12:35.869Z,-1.51
2022-12-13T12:15:46.396Z,-1.58
2022-12-13T12:18:51.500Z,-1.40
2022-12-13T12:22:16.096Z,-1.26
2022-12-13T12:25:27.529Z,-1.27
2022-12-13T12:28:44.380Z,-1.07
2022-12-13T12:31:58.921Z,-1.30
2022-12-13T12:35:17.804Z,-1.40
2022-12-13T12:38:44.499Z,-1.38
2022-12-13T12:42:07.724Z,-1.38
2022-12-13T12:49:29.133Z,-1.23
2022-12-13T12:52:42.671Z,-1.27
2022-12-13T12:55:53.776Z,-1.29
2022-12-13T12:59:12.170Z,-1.32
2022-12-13T13:02:23.561Z,-1.33
2022-12-13T13:05:34.873Z,-1.32
2022-12-13T13:08:43.776Z,-1.33
2022-12-13T13:11:49.433Z,-1.36
2022-12-13T13:15:55.648Z,-1.36
2022-12-13T13:18:59.199Z,-1.45
2022-12-13T13:22:04.647Z,-1.47
2022-12-13T13:25:32.079Z,-1.52
2022-12-13T13:28:35.191Z,-1.50
2022-12-13T13:35:53.324Z,-1.46
2022-12-13T13:39:01.250Z,-1.36
2022-12-13T13:42:18.386Z,-1.29
2022-12-13T13:45:23.511Z,-1.44
2022-12-13T13:48:40.516Z,-1.51
2022-12-13T13:52:25.056Z,-1.40
2022-12-13T13:55:48.770Z,-1.52
2022-12-13T13:59:48.286Z,-1.59
2022-12-13T14:03:37.208Z,-1.59
2022-12-13T14:07:10.902Z,-1.55
2022-12-13T14:10:25.365Z,-1.50
2022-12-13T14:14:21.766Z,-1.47
2022-12-13T14:18:03.299Z,-1.46
2022-12-13T14:21:23.665Z,-1.39
2022-12-13T14:24:47.027Z,-1.21
2022-12-13T14:27:55.484Z,-1.23
2022-12-13T14:30:58.303Z,-1.26
2022-12-13T14:34:03.999Z,-1.25
2022-12-13T14:37:20.107Z,-1.17
2022-12-13T14:40:27.909Z,-1.27
2022-12-13T14:43:33.262Z,-1.33
2022-12-13T14:46:39.157Z,-1.30
2022-12-13T14:49:48.772Z,-1.39
2022-12-13T14:52:52.477Z,-1.42
2022-12-13T14:56:08.060Z,-1.51
2022-12-13T14:59:14.170Z,-1.50
2022-12-13T15:02:18.975Z,-1.66
2022-12-13T15:05:47.236Z,-1.67
2022-12-13T15:08:53.751Z,-1.78
2022-12-13T15:12:02.892Z,-1.87
2022-12-13T15:15:25.767Z,-1.95
2022-12-13T15:18:29.710Z,-1.99
2022-12-13T15:21:33.819Z,-2.04
2022-12-13T15:24:41.012Z,-2.00
2022-12-13T15:27:48.410Z,-2.07
2022-12-13T15:30:53.882Z,-2.10
2022-12-13T15:34:34.283Z,-2.14
2022-12-13T15:37:38.465Z,-2.16
2022-12-13T15:40:48.377Z,-2.15
2022-12-13T15:43:54.037Z,-2.03
2022-12-13T15:47:03.083Z,-2.02
2022-12-13T15:50:08.545Z,-1.98
2022-12-13T15:53:25.224Z,-2.10
2022-12-13T15:56:31.150Z,-2.26
2022-12-13T15:59:35.814Z,-2.22
2022-12-13T16:02:55.026Z,-2.29
2022-12-13T16:05:59.013Z,-2.29
2022-12-13T16:09:07.852Z,-2.36
2022-12-13T16:12:24.510Z,-2.36
2022-12-13T16:15:29.989Z,-2.43
2022-12-13T16:18:42.511Z,-2.37
2022-12-13T16:21:45.254Z,-2.25
2022-12-13T16:25:00.457Z,-2.30
2022-12-13T16:28:03.515Z,-2.35
2022-12-13T16:31:16.926Z,-2.34
2022-12-13T16:34:26.357Z,-2.33
2022-12-13T16:37:29.216Z,-2.29
2022-12-13T16:40:33.718Z,-2.36
2022-12-13T16:43:40.445Z,-2.41
2022-12-13T16:47:15.374Z,-2.42
2022-12-13T16:50:15.023Z,-2.43
2022-12-13T16:53:18.328Z,-2.46
2022-12-13T16:56:22.428Z,-2.46
2022-12-13T16:59:26.825Z,-2.48
2022-12-13T17:02:29.695Z,-2.49
2022-12-13T17:05:34.512Z,-2.54
2022-12-13T17:08:37.213Z,-2.55
2022-12-13T17:11:41.651Z,-2.58
2022-12-13T17:14:50.705Z,-2.63
2022-12-13T17:17:56.132Z,-2.63
2022-12-13T17:21:07.967Z,-2.61
2022-12-13T17:24:12.607Z,-2.58
2022-12-13T17:27:18.330Z,-2.64
2022-12-13T17:30:23.511Z,-2.66
2022-12-13T17:33:26.555Z,-2.67
2022-12-13T17:36:33.472Z,-2.96
2022-12-13T17:39:36.199Z,-2.72
2022-12-13T17:42:40.472Z,-2.74
2022-12-13T17:45:43.875Z,-2.66
2022-12-13T17:48:46.779Z,-2.65
2022-12-13T17:51:54.119Z,-2.64
2022-12-13T17:55:00.886Z,-2.63
2022-12-13T17:58:05.238Z,-2.60
2022-12-13T18:01:19.638Z,-2.59
2022-12-13T18:04:33.209Z,-2.57
2022-12-13T18:07:35.906Z,-2.57
2022-12-13T18:10:41.677Z,-2.52
2022-12-13T18:13:46.515Z,-2.48
2022-12-13T18:16:49.242Z,-2.50
2022-12-13T18:19:52.181Z,-2.54
2022-12-13T18:22:58.428Z,-2.52
2022-12-13T18:26:02.111Z,-2.60
2022-12-13T18:29:12.268Z,-2.61
2022-12-13T18:32:15.104Z,-2.58
2022-12-13T18:35:23.342Z,-2.58
2022-12-13T18:38:30.368Z,-2.58
2022-12-13T18:41:37.601Z,-2.50
2022-12-13T18:44:41.667Z,-2.44
2022-12-13T18:47:57.085Z,-2.35
2022-12-13T18:51:00.863Z,-2.29
2022-12-13T18:54:03.651Z,-2.27
2022-12-13T18:57:06.532Z,-2.23
2022-12-13T19:00:12.662Z,-2.25
2022-12-13T19:03:15.400Z,-2.27
2022-12-13T19:06:20.794Z,-2.29
2022-12-13T19:09:24.018Z,-2.61
2022-12-13T19:12:27.060Z,-2.25
2022-12-13T19:15:31.200Z,-2.24
2022-12-13T19:18:37.669Z,-2.25
2022-12-13T19:21:40.439Z,-2.23
2022-12-13T19:24:43.275Z,-2.26
2022-12-13T19:27:47.555Z,-2.24
2022-12-13T19:30:52.832Z,-2.16
2022-12-13T19:33:57.812Z,-2.13
2022-12-13T19:37:06.364Z,-2.15
2022-12-13T19:40:10.660Z,-2.04
2022-12-13T19:43:13.459Z,-2.00
2022-12-13T19:46:17.521Z,-1.94
2022-12-13T19:49:20.350Z,-1.95
2022-12-13T19:52:25.514Z,-1.95
2022-12-13T19:55:34.415Z,-1.94
2022-12-13T19:58:38.523Z,-1.82
2022-12-13T20:01:42.937Z,-1.76
2022-12-13T20:04:46.291Z,-1.82
2022-12-13T20:07:57.982Z,-1.76
2022-12-13T20:11:05.705Z,-1.90
2022-12-13T20:14:09.202Z,-2.09
2022-12-13T20:17:15.935Z,-1.91
2022-12-13T20:20:19.034Z,-1.92
2022-12-13T20:23:21.841Z,-1.77
2022-12-13T20:26:26.709Z,-1.77
2022-12-13T20:29:29.419Z,-1.85
2022-12-13T20:32:34.207Z,-1.89
2022-12-13T20:36:00.660Z,-1.82
2022-12-13T20:39:05.657Z,-1.85
2022-12-13T20:42:08.375Z,-1.73
2022-12-13T20:45:12.305Z,-1.79
2022-12-13T20:48:16.423Z,-1.85
2022-12-13T20:51:20.970Z,-1.87
2022-12-13T20:54:23.724Z,-1.85
2022-12-13T20:57:26.492Z,-1.84
2022-12-13T21:00:33.241Z,-1.78
2022-12-13T21:03:37.314Z,-1.79
2022-12-13T21:06:41.801Z,-1.80
2022-12-13T21:09:44.514Z,-1.86
2022-12-13T21:12:47.430Z,-1.84
2022-12-13T21:15:50.147Z,-1.83
2022-12-13T21:18:55.930Z,-1.73
2022-12-13T21:22:00.884Z,-1.77
2022-12-13T21:25:04.425Z,-1.72
2022-12-13T21:28:07.097Z,-1.70
2022-12-13T21:31:11.640Z,-1.73
2022-12-13T21:34:15.924Z,-1.70
2022-12-13T21:37:18.815Z,-1.67
2022-12-13T21:40:22.732Z,-1.67
2022-12-13T21:43:36.791Z,-1.71
2022-12-13T21:50:04.024Z,-1.74
2022-12-13T21:53:06.777Z,-1.53
2022-12-13T21:56:29.001Z,-1.65
2022-12-13T21:59:41.008Z,-1.66
2022-12-13T22:02:44.782Z,-1.68
2022-12-13T22:05:51.526Z,-1.73
2022-12-13T22:08:56.242Z,-1.78
2022-12-13T22:11:58.977Z,-1.77
2022-12-13T22:15:04.618Z,-1.74
2022-12-13T22:18:10.537Z,-1.73
2022-12-13T22:21:14.759Z,-1.67
2022-12-13T22:24:17.687Z,-1.67
2022-12-13T22:27:23.928Z,-1.65
2022-12-13T22:30:27.048Z,-1.75
2022-12-13T22:33:30.269Z,-1.74
2022-12-13T22:36:34.379Z,-1.74
2022-12-13T22:39:37.115Z,-1.77
2022-12-13T22:42:40.141Z,-1.80
2022-12-13T22:45:42.841Z,-1.76
2022-12-13T22:48:45.779Z,-1.75
2022-12-13T22:51:57.495Z,-1.74
2022-12-13T22:55:00.342Z,-1.71
2022-12-13T22:58:03.333Z,-1.72
2022-12-13T23:01:12.597Z,-1.79
2022-12-13T23:04:15.659Z,-1.74
2022-12-13T23:07:20.138Z,-1.72
2022-12-13T23:10:40.316Z,-1.76
2022-12-13T23:13:43.033Z,-1.73
2022-12-13T23:16:51.010Z,-1.68
2022-12-13T23:19:53.904Z,-1.70
2022-12-13T23:22:58.064Z,-1.66
2022-12-13T23:26:09.114Z,-1.68
2022-12-13T23:29:11.877Z,-1.65
2022-12-13T23:32:14.645Z,-1.67
2022-12-13T23:35:17.475Z,-1.63
2022-12-13T23:38:24.961Z,-1.60
2022-12-13T23:41:33.688Z,-1.72
2022-12-13T23:44:37.581Z,-1.63
2022-12-13T23:47:40.315Z,-1.68
2022-12-13T23:50:43.185Z,-1.70
2022-12-13T23:53:47.896Z,-1.65
2022-12-13T23:56:50.846Z,-1.65
2022-12-13T23:59:53.527Z,-1.67
